Channing, Texas
Current Conditions -  °F | °C
As of 4:53 PM on Tuesday 25 Nov 2014 (Local Time) from KDHT Reporting Station
Clear Clear  
Wind Chill: 53°   Ceiling: Unl
Heat Index: 53°   Visibility: 10mi
Dew Point: 11°   Wind: 14mph
Humidity: 19%   Direction: 220°SW
Pressure: 29.96"   Gusts: NA
Location:  35.68°N, 102.33°W
Report Text: KDHT 252253Z AUTO 22012KT 10SM CLR 12/M12 A2996 RMK AO2 SLP146 T01171117
Loading
Personal Weather Stations






























Interactive Weather Map New forecast layout! Learn more

10-Day Weather Forecast

Advertisements
Track Severe Weather on mobile